Pagrindinis puslapis
METAR-TAF:

METAR-TAF

Oro uostai :

Malatija, Turkija

platuma: 38-26N, ilguma: 038-05E, Aukštis: 862 m

Dabartinis oras

Ataskaita buvo paskelbta 29 minutes, ne 06:20 UTC
Vėjas 4 kt nuo kintamojo kryptimis
Temperatūra 23°C
Drėgmė 25%
Slėgis 1017 hPa
Matomumas 10 km arba daugiau
nėra debesų žemiau 1500 m ir nėra kamuolinių lietaus debesų

METAR: LTAT 140620Z VRB04KT CAVOK 23/02 Q1017 NOSIG RMK RWY03 VRB03KT

Laikas: 09:49 (06:49 UTC)

Prognozė

Ataskaita buvo paskelbta 2 valandos ir 9 minutes, ne 04:40 UTC
Prognozė galioja nuo 14 metu 06 UTC su 15 metu 06 UTC
Vėjas 2 kt nuo kintamojo kryptimis
Matomumas 10 km arba daugiau
nėra debesų žemiau 1500 m ir nėra kamuolinių lietaus debesų
Laikinai
nuo 14 metu 12 UTC su 14 metu 16 UTC
Vėjas 15 kt iš Pietų/Pietvakarių

TAF: LTAT 140440Z 1406/1506 VRB02KT CAVOK TEMPO 1412/1416 21015KT

Orai ataskaitas ir orų prognozės (METAR, TAF).

turimą stotys yra geltonos ir raudonos taškus žemėlapyje.

Perkelti pele per norėdami pamatyti stoties vardą.

Tada spustelėkite, norėdami matyti oro stebėjimo ir prognozės.

Norėdami pakeisti žemėlapį: spustelėkite ant žalios mygtukų su juodo kryžiaus žemyn,; žalią mygtuką su brūkšneliu, jei norite nutolinti; arba žalių rodyklių gretimoms žemėlapius.


METAR-TAF: